Date,TemperatureHighF,TemperatureAvgF,TemperatureLowF,DewpointHighF,DewpointAvgF,DewpointLowF,HumidityHigh,HumidityAvg,HumidityLow,PressureMaxIn,PressureMinIn,WindSpeedMaxMPH,WindSpeedAvgMPH,GustSpeedMaxMPH,PrecipitationSumIn
2013-12-1,44.0,39.6,27.6,37.8,34.5,0.0,92,82,1,30.49,24.66,15,1,15,0.43
2013-12-2,43.2,40.4,37.6,38.5,34.5,29.3,98,80,61,29.94,29.69,16,4,16,0.06
2013-12-3,52.4,44.2,39.0,51.3,42.8,37.9,98,95,90,29.70,29.63,14,2,14,0.07
2013-12-4,51.9,50.9,49.8,50.2,49.3,48.2,95,94,93,29.66,29.55,9,1,9,0.00
2013-12-6,21.2,20.4,19.8,14.6,13.6,12.4,76,75,71,30.33,30.27,12,3,12,0.00
2013-12-7,23.2,20.1,17.1,10.1,8.0,4.7,68,59,49,30.59,30.50,10,0,10,0.00
2013-12-8,28.6,24.7,17.8,28.1,21.1,7.2,99,87,63,30.51,29.85,12,2,12,0.16
2013-12-10,24.2,22.5,19.3,14.8,13.0,11.1,71,67,62,30.11,29.94,26,10,26,0.00
2013-12-12,21.7,12.7,2.4,15.6,6.1,-3.1,78,74,64,30.36,30.17,22,6,22,0.00
2013-12-15,15.1,14.7,14.2,8.1,6.6,4.8,74,70,66,30.06,30.05,10,1,10,0.00
2013-12-16,19.7,14.5,11.8,13.6,7.6,4.2,78,73,65,30.09,30.04,11,0,11,0.00
2013-12-17,35.6,34.8,33.8,28.1,27.3,24.6,77,74,70,29.92,29.86,17,7,17,0.00
2013-12-20,38.1,36.9,35.8,37.6,36.6,35.6,100,99,97,29.75,29.69,10,0,10,0.17
2013-12-21,38.0,34.9,33.4,37.7,34.8,33.2,100,100,99,29.81,29.71,8,0,8,0.01
2013-12-22,34.9,34.3,33.2,34.7,33.6,30.9,100,97,91,29.81,29.69,6,1,6,0.09
2013-12-23,4.3,1.9,1.2,0.1,-2.5,-3.5,82,81,80,30.36,30.33,19,8,21,0.00
2013-12-24,21.4,10.4,0.1,14.6,5.3,-4.6,90,80,62,30.46,30.26,17,5,17,0.00
2013-12-25,28.2,24.7,19.3,27.1,21.6,13.1,97,88,70,30.26,30.02,16,5,19,0.04
2013-12-26,36.4,27.3,17.6,31.8,22.3,13.1,95,81,73,30.22,30.02,20,5,20,0.00
2013-12-27,45.0,38.5,31.0,32.8,31.2,28.8,95,76,56,30.23,30.01,23,5,23,0.00
2013-12-28,53.4,44.1,36.8,37.0,34.1,31.6,87,69,49,30.03,29.76,20,6,20,0.00
2013-12-29,41.7,29.4,12.0,33.1,24.0,4.8,96,80,69,30.12,29.69,29,5,29,0.00
2013-12-30,15.1,9.7,3.2,9.0,2.9,-1.9,90,74,56,30.26,30.11,14,2,15,0.01
2013-12-31,11.3,7.6,4.7,7.7,3.9,1.4,89,85,75,30.26,30.10,17,4,17,0.00